sensor_id;sensor_type;location;lat;lon;timestamp;temperature;humidity
28520;DHT22;15732;48.534;20.382;2022-11-15T00:01:17;4.10;99.90
28520;DHT22;15732;48.534;20.382;2022-11-15T00:03:45;4.10;99.90
28520;DHT22;15732;48.534;20.382;2022-11-15T00:06:17;4.10;99.90
28520;DHT22;15732;48.534;20.382;2022-11-15T00:08:44;4.10;99.90
28520;DHT22;15732;48.534;20.382;2022-11-15T00:11:12;4.20;99.90
28520;DHT22;15732;48.534;20.382;2022-11-15T00:13:39;4.10;99.90
28520;DHT22;15732;48.534;20.382;2022-11-15T00:16:08;4.00;99.90
28520;DHT22;15732;48.534;20.382;2022-11-15T00:18:35;3.90;99.90
28520;DHT22;15732;48.534;20.382;2022-11-15T00:21:04;3.90;99.90
28520;DHT22;15732;48.534;20.382;2022-11-15T00:23:33;3.90;99.90
28520;DHT22;15732;48.534;20.382;2022-11-15T00:26:00;3.80;99.90
28520;DHT22;15732;48.534;20.382;2022-11-15T00:28:27;3.70;99.90
28520;DHT22;15732;48.534;20.382;2022-11-15T00:31:00;3.70;99.90
28520;DHT22;15732;48.534;20.382;2022-11-15T00:33:28;3.70;99.90
28520;DHT22;15732;48.534;20.382;2022-11-15T00:36:00;3.60;99.90
28520;DHT22;15732;48.534;20.382;2022-11-15T00:38:36;3.60;99.90
28520;DHT22;15732;48.534;20.382;2022-11-15T00:41:04;3.60;99.90
28520;DHT22;15732;48.534;20.382;2022-11-15T00:43:35;3.50;99.90
28520;DHT22;15732;48.534;20.382;2022-11-15T00:46:02;3.60;99.90
28520;DHT22;15732;48.534;20.382;2022-11-15T00:48:30;3.70;99.90
28520;DHT22;15732;48.534;20.382;2022-11-15T00:50:57;3.60;99.90
28520;DHT22;15732;48.534;20.382;2022-11-15T00:53:25;3.60;99.90
28520;DHT22;15732;48.534;20.382;2022-11-15T00:55:52;3.60;99.90
28520;DHT22;15732;48.534;20.382;2022-11-15T00:58:19;3.60;99.90
28520;DHT22;15732;48.534;20.382;2022-11-15T01:00:46;3.60;99.90
28520;DHT22;15732;48.534;20.382;2022-11-15T01:03:17;3.60;99.90
28520;DHT22;15732;48.534;20.382;2022-11-15T01:05:44;3.60;99.90
28520;DHT22;15732;48.534;20.382;2022-11-15T01:08:15;3.60;99.90
28520;DHT22;15732;48.534;20.382;2022-11-15T01:10:43;3.60;99.90
28520;DHT22;15732;48.534;20.382;2022-11-15T01:13:14;3.60;99.90
28520;DHT22;15732;48.534;20.382;2022-11-15T01:15:44;3.60;99.90
28520;DHT22;15732;48.534;20.382;2022-11-15T01:18:16;3.60;99.90
28520;DHT22;15732;48.534;20.382;2022-11-15T01:20:43;3.50;99.90
28520;DHT22;15732;48.534;20.382;2022-11-15T01:23:14;3.50;99.90
28520;DHT22;15732;48.534;20.382;2022-11-15T01:25:42;3.50;99.90
28520;DHT22;15732;48.534;20.382;2022-11-15T01:28:09;3.40;99.90
28520;DHT22;15732;48.534;20.382;2022-11-15T01:30:36;3.50;99.90
28520;DHT22;15732;48.534;20.382;2022-11-15T01:33:07;3.50;99.90
28520;DHT22;15732;48.534;20.382;2022-11-15T01:35:38;3.50;99.90
28520;DHT22;15732;48.534;20.382;2022-11-15T01:38:07;3.50;99.90
28520;DHT22;15732;48.534;20.382;2022-11-15T01:40:34;3.50;99.90
28520;DHT22;15732;48.534;20.382;2022-11-15T01:43:19;3.40;99.90
28520;DHT22;15732;48.534;20.382;2022-11-15T01:46:21;3.30;99.90
28520;DHT22;15732;48.534;20.382;2022-11-15T01:48:51;3.30;99.90
28520;DHT22;15732;48.534;20.382;2022-11-15T01:51:21;3.40;99.90
28520;DHT22;15732;48.534;20.382;2022-11-15T01:53:50;3.50;99.90
28520;DHT22;15732;48.534;20.382;2022-11-15T01:56:26;3.50;99.90
28520;DHT22;15732;48.534;20.382;2022-11-15T01:59:01;3.50;99.90
28520;DHT22;15732;48.534;20.382;2022-11-15T02:01:31;3.50;99.90
28520;DHT22;15732;48.534;20.382;2022-11-15T02:04:30;3.50;99.90
28520;DHT22;15732;48.534;20.382;2022-11-15T02:06:59;3.60;99.90
28520;DHT22;15732;48.534;20.382;2022-11-15T02:09:29;3.40;99.90
28520;DHT22;15732;48.534;20.382;2022-11-15T02:11:56;3.50;99.90
28520;DHT22;15732;48.534;20.382;2022-11-15T02:14:25;3.50;99.90
28520;DHT22;15732;48.534;20.382;2022-11-15T02:28:05;3.20;99.90
28520;DHT22;15732;48.534;20.382;2022-11-15T02:30:47;3.20;99.90
28520;DHT22;15732;48.534;20.382;2022-11-15T02:33:34;3.10;99.90
28520;DHT22;15732;48.534;20.382;2022-11-15T02:36:16;3.10;99.90
28520;DHT22;15732;48.534;20.382;2022-11-15T02:42:07;3.00;99.90
28520;DHT22;15732;48.534;20.382;2022-11-15T02:45:09;3.00;99.90
28520;DHT22;15732;48.534;20.382;2022-11-15T02:47:44;2.90;99.90
28520;DHT22;15732;48.534;20.382;2022-11-15T02:50:15;2.90;99.90
28520;DHT22;15732;48.534;20.382;2022-11-15T02:53:03;2.90;99.90
28520;DHT22;15732;48.534;20.382;2022-11-15T02:55:32;3.00;99.90
28520;DHT22;15732;48.534;20.382;2022-11-15T03:00:31;2.80;99.90
28520;DHT22;15732;48.534;20.382;2022-11-15T03:11:41;2.90;99.90
28520;DHT22;15732;48.534;20.382;2022-11-15T03:14:29;2.90;99.90
28520;DHT22;15732;48.534;20.382;2022-11-15T03:19:52;2.90;99.90
28520;DHT22;15732;48.534;20.382;2022-11-15T03:22:23;2.90;99.90
28520;DHT22;15732;48.534;20.382;2022-11-15T03:24:54;2.90;99.90
28520;DHT22;15732;48.534;20.382;2022-11-15T03:27:25;3.00;99.90
28520;DHT22;15732;48.534;20.382;2022-11-15T03:30:00;2.90;99.90
28520;DHT22;15732;48.534;20.382;2022-11-15T03:32:31;3.00;99.90
28520;DHT22;15732;48.534;20.382;2022-11-15T03:35:09;3.00;99.90
28520;DHT22;15732;48.534;20.382;2022-11-15T03:40:42;2.90;99.90
28520;DHT22;15732;48.534;20.382;2022-11-15T03:43:20;2.90;99.90
28520;DHT22;15732;48.534;20.382;2022-11-15T03:46:00;2.80;99.90
28520;DHT22;15732;48.534;20.382;2022-11-15T03:48:35;2.80;99.90
28520;DHT22;15732;48.534;20.382;2022-11-15T03:51:08;2.70;99.90
28520;DHT22;15732;48.534;20.382;2022-11-15T03:53:36;2.70;99.90
28520;DHT22;15732;48.534;20.382;2022-11-15T03:56:03;2.60;99.90
28520;DHT22;15732;48.534;20.382;2022-11-15T03:58:31;2.70;99.90
28520;DHT22;15732;48.534;20.382;2022-11-15T04:01:02;2.70;99.90
28520;DHT22;15732;48.534;20.382;2022-11-15T04:03:33;2.70;99.90
28520;DHT22;15732;48.534;20.382;2022-11-15T04:06:05;2.80;99.90
28520;DHT22;15732;48.534;20.382;2022-11-15T04:08:32;2.80;99.90
28520;DHT22;15732;48.534;20.382;2022-11-15T04:10:59;2.90;99.90
28520;DHT22;15732;48.534;20.382;2022-11-15T04:13:26;2.90;99.90
28520;DHT22;15732;48.534;20.382;2022-11-15T04:15:53;2.90;99.90
28520;DHT22;15732;48.534;20.382;2022-11-15T04:18:20;2.90;99.90
28520;DHT22;15732;48.534;20.382;2022-11-15T04:20:48;2.70;99.90
28520;DHT22;15732;48.534;20.382;2022-11-15T04:23:33;2.70;99.90
28520;DHT22;15732;48.534;20.382;2022-11-15T04:26:32;2.60;99.90
28520;DHT22;15732;48.534;20.382;2022-11-15T04:28:59;2.70;99.90
28520;DHT22;15732;48.534;20.382;2022-11-15T04:31:45;2.70;99.90
28520;DHT22;15732;48.534;20.382;2022-11-15T04:34:12;2.80;99.90
28520;DHT22;15732;48.534;20.382;2022-11-15T04:36:40;2.80;99.90
28520;DHT22;15732;48.534;20.382;2022-11-15T04:39:25;2.90;99.90
28520;DHT22;15732;48.534;20.382;2022-11-15T04:41:57;2.90;99.90
28520;DHT22;15732;48.534;20.382;2022-11-15T04:44:24;2.80;99.90
28520;DHT22;15732;48.534;20.382;2022-11-15T04:46:51;2.90;99.90
28520;DHT22;15732;48.534;20.382;2022-11-15T04:49:19;2.90;99.90
28520;DHT22;15732;48.534;20.382;2022-11-15T04:51:49;2.90;99.90
28520;DHT22;15732;48.534;20.382;2022-11-15T04:54:16;2.90;99.90
28520;DHT22;15732;48.534;20.382;2022-11-15T04:56:43;2.80;99.90
28520;DHT22;15732;48.534;20.382;2022-11-15T04:59:14;2.90;99.90
28520;DHT22;15732;48.534;20.382;2022-11-15T05:01:42;2.90;99.90
28520;DHT22;15732;48.534;20.382;2022-11-15T05:04:09;2.90;99.90
28520;DHT22;15732;48.534;20.382;2022-11-15T05:06:49;2.80;99.90
28520;DHT22;15732;48.534;20.382;2022-11-15T05:09:20;2.90;99.90
28520;DHT22;15732;48.534;20.382;2022-11-15T05:11:47;2.80;99.90
28520;DHT22;15732;48.534;20.382;2022-11-15T05:14:15;2.80;99.90
28520;DHT22;15732;48.534;20.382;2022-11-15T05:16:46;2.80;99.90
28520;DHT22;15732;48.534;20.382;2022-11-15T05:19:14;2.80;99.90
28520;DHT22;15732;48.534;20.382;2022-11-15T05:21:41;2.70;99.90
28520;DHT22;15732;48.534;20.382;2022-11-15T05:24:10;2.70;99.90
28520;DHT22;15732;48.534;20.382;2022-11-15T05:26:41;2.80;99.90
28520;DHT22;15732;48.534;20.382;2022-11-15T05:29:09;2.80;99.90
28520;DHT22;15732;48.534;20.382;2022-11-15T05:31:40;2.70;99.90
28520;DHT22;15732;48.534;20.382;2022-11-15T05:34:07;2.80;99.90
28520;DHT22;15732;48.534;20.382;2022-11-15T05:36:41;2.70;99.90
28520;DHT22;15732;48.534;20.382;2022-11-15T05:39:08;2.90;99.90
28520;DHT22;15732;48.534;20.382;2022-11-15T05:42:09;2.90;99.90
28520;DHT22;15732;48.534;20.382;2022-11-15T05:44:41;2.90;99.90
28520;DHT22;15732;48.534;20.382;2022-11-15T05:47:12;2.90;99.90
28520;DHT22;15732;48.534;20.382;2022-11-15T05:49:45;2.90;99.90
28520;DHT22;15732;48.534;20.382;2022-11-15T05:52:16;2.90;99.90
28520;DHT22;15732;48.534;20.382;2022-11-15T05:54:43;3.00;99.90
28520;DHT22;15732;48.534;20.382;2022-11-15T05:57:11;3.10;99.90
28520;DHT22;15732;48.534;20.382;2022-11-15T05:59:38;3.20;99.90
28520;DHT22;15732;48.534;20.382;2022-11-15T06:02:10;3.20;99.90
28520;DHT22;15732;48.534;20.382;2022-11-15T06:04:37;3.30;99.90
28520;DHT22;15732;48.534;20.382;2022-11-15T06:07:04;3.30;99.90
28520;DHT22;15732;48.534;20.382;2022-11-15T06:09:31;3.30;99.90
28520;DHT22;15732;48.534;20.382;2022-11-15T06:11:58;3.30;99.90
28520;DHT22;15732;48.534;20.382;2022-11-15T06:14:29;3.30;99.90
28520;DHT22;15732;48.534;20.382;2022-11-15T06:16:56;3.40;99.90
28520;DHT22;15732;48.534;20.382;2022-11-15T06:19:23;3.40;99.90
28520;DHT22;15732;48.534;20.382;2022-11-15T06:21:50;3.50;99.90
28520;DHT22;15732;48.534;20.382;2022-11-15T06:24:17;3.50;99.90
28520;DHT22;15732;48.534;20.382;2022-11-15T06:26:45;3.40;99.90
28520;DHT22;15732;48.534;20.382;2022-11-15T06:29:12;3.50;99.90
28520;DHT22;15732;48.534;20.382;2022-11-15T06:31:39;3.60;99.90
28520;DHT22;15732;48.534;20.382;2022-11-15T06:34:07;3.50;99.90
28520;DHT22;15732;48.534;20.382;2022-11-15T06:36:35;3.50;99.90
28520;DHT22;15732;48.534;20.382;2022-11-15T06:39:05;3.40;99.90
28520;DHT22;15732;48.534;20.382;2022-11-15T06:41:34;3.50;99.90
28520;DHT22;15732;48.534;20.382;2022-11-15T06:44:02;3.50;99.90
28520;DHT22;15732;48.534;20.382;2022-11-15T06:46:29;3.50;99.90
28520;DHT22;15732;48.534;20.382;2022-11-15T06:48:56;3.50;99.90
28520;DHT22;15732;48.534;20.382;2022-11-15T06:51:24;3.60;99.90
28520;DHT22;15732;48.534;20.382;2022-11-15T06:53:51;3.60;99.90
28520;DHT22;15732;48.534;20.382;2022-11-15T06:56:19;3.70;99.90
28520;DHT22;15732;48.534;20.382;2022-11-15T06:58:46;3.70;99.90
28520;DHT22;15732;48.534;20.382;2022-11-15T07:01:13;3.80;99.90
28520;DHT22;15732;48.534;20.382;2022-11-15T07:03:45;3.90;99.90
28520;DHT22;15732;48.534;20.382;2022-11-15T07:06:12;4.00;99.90
28520;DHT22;15732;48.534;20.382;2022-11-15T07:08:40;4.00;99.90
28520;DHT22;15732;48.534;20.382;2022-11-15T07:11:09;4.00;99.90
28520;DHT22;15732;48.534;20.382;2022-11-15T07:13:39;4.10;99.90
28520;DHT22;15732;48.534;20.382;2022-11-15T07:16:10;4.20;99.90
28520;DHT22;15732;48.534;20.382;2022-11-15T07:18:41;4.20;99.90
28520;DHT22;15732;48.534;20.382;2022-11-15T07:21:10;4.30;99.90
28520;DHT22;15732;48.534;20.382;2022-11-15T07:23:41;4.30;99.90
28520;DHT22;15732;48.534;20.382;2022-11-15T07:26:13;4.40;99.90
28520;DHT22;15732;48.534;20.382;2022-11-15T07:28:43;4.50;99.90
28520;DHT22;15732;48.534;20.382;2022-11-15T07:31:11;4.50;99.90
28520;DHT22;15732;48.534;20.382;2022-11-15T07:33:38;4.60;99.90
28520;DHT22;15732;48.534;20.382;2022-11-15T07:36:06;4.70;99.90
28520;DHT22;15732;48.534;20.382;2022-11-15T07:38:35;4.70;99.90
28520;DHT22;15732;48.534;20.382;2022-11-15T07:41:04;4.70;99.90
28520;DHT22;15732;48.534;20.382;2022-11-15T07:43:30;4.70;99.90
28520;DHT22;15732;48.534;20.382;2022-11-15T07:46:05;4.70;99.90
28520;DHT22;15732;48.534;20.382;2022-11-15T07:48:38;4.80;99.90
28520;DHT22;15732;48.534;20.382;2022-11-15T07:51:07;4.80;99.90
28520;DHT22;15732;48.534;20.382;2022-11-15T07:53:38;4.80;99.90
28520;DHT22;15732;48.534;20.382;2022-11-15T07:56:10;4.80;99.90
28520;DHT22;15732;48.534;20.382;2022-11-15T07:58:37;4.80;99.90
28520;DHT22;15732;48.534;20.382;2022-11-15T08:01:05;4.90;99.90
28520;DHT22;15732;48.534;20.382;2022-11-15T08:03:37;4.90;99.90
28520;DHT22;15732;48.534;20.382;2022-11-15T08:06:08;4.90;99.90
28520;DHT22;15732;48.534;20.382;2022-11-15T08:08:35;4.90;99.90
28520;DHT22;15732;48.534;20.382;2022-11-15T08:11:06;4.90;99.90
28520;DHT22;15732;48.534;20.382;2022-11-15T08:13:33;4.90;99.90
28520;DHT22;15732;48.534;20.382;2022-11-15T08:16:02;5.00;99.90
28520;DHT22;15732;48.534;20.382;2022-11-15T08:18:29;5.10;99.90
28520;DHT22;15732;48.534;20.382;2022-11-15T08:21:01;5.20;99.90
28520;DHT22;15732;48.534;20.382;2022-11-15T08:23:32;5.20;99.90
28520;DHT22;15732;48.534;20.382;2022-11-15T08:26:04;5.20;99.90
28520;DHT22;15732;48.534;20.382;2022-11-15T08:28:32;5.30;99.90
28520;DHT22;15732;48.534;20.382;2022-11-15T08:30:59;5.30;99.90
28520;DHT22;15732;48.534;20.382;2022-11-15T08:33:26;5.30;99.90
28520;DHT22;15732;48.534;20.382;2022-11-15T08:35:56;5.30;99.90
28520;DHT22;15732;48.534;20.382;2022-11-15T08:38:23;5.30;99.90
28520;DHT22;15732;48.534;20.382;2022-11-15T08:40:53;5.40;99.90
28520;DHT22;15732;48.534;20.382;2022-11-15T08:43:29;5.40;99.90
28520;DHT22;15732;48.534;20.382;2022-11-15T08:45:59;5.50;99.90
28520;DHT22;15732;48.534;20.382;2022-11-15T08:48:26;5.50;99.90
28520;DHT22;15732;48.534;20.382;2022-11-15T08:50:55;5.60;99.90
28520;DHT22;15732;48.534;20.382;2022-11-15T08:53:22;5.60;99.90
28520;DHT22;15732;48.534;20.382;2022-11-15T08:55:49;5.70;99.90
28520;DHT22;15732;48.534;20.382;2022-11-15T08:58:16;5.70;99.90
28520;DHT22;15732;48.534;20.382;2022-11-15T09:00:44;5.80;99.90
28520;DHT22;15732;48.534;20.382;2022-11-15T09:03:11;5.90;99.90
28520;DHT22;15732;48.534;20.382;2022-11-15T09:05:42;5.90;99.90
28520;DHT22;15732;48.534;20.382;2022-11-15T09:08:09;6.00;99.90
28520;DHT22;15732;48.534;20.382;2022-11-15T09:10:37;6.10;99.90
28520;DHT22;15732;48.534;20.382;2022-11-15T09:13:05;6.10;99.90
28520;DHT22;15732;48.534;20.382;2022-11-15T09:15:32;6.20;99.90
28520;DHT22;15732;48.534;20.382;2022-11-15T09:18:03;6.30;99.90
28520;DHT22;15732;48.534;20.382;2022-11-15T09:20:30;6.30;99.90
28520;DHT22;15732;48.534;20.382;2022-11-15T09:23:01;6.40;99.90
28520;DHT22;15732;48.534;20.382;2022-11-15T09:25:28;6.40;99.90
28520;DHT22;15732;48.534;20.382;2022-11-15T09:27:56;6.40;99.90
28520;DHT22;15732;48.534;20.382;2022-11-15T09:30:24;6.50;99.90
28520;DHT22;15732;48.534;20.382;2022-11-15T09:32:52;6.50;99.90
28520;DHT22;15732;48.534;20.382;2022-11-15T09:35:23;6.60;99.90
28520;DHT22;15732;48.534;20.382;2022-11-15T09:37:50;6.70;99.90
28520;DHT22;15732;48.534;20.382;2022-11-15T09:40:19;6.70;99.90
28520;DHT22;15732;48.534;20.382;2022-11-15T09:43:01;6.80;99.90
28520;DHT22;15732;48.534;20.382;2022-11-15T09:48:53;7.00;99.90
28520;DHT22;15732;48.534;20.382;2022-11-15T09:54:03;7.30;99.90
28520;DHT22;15732;48.534;20.382;2022-11-15T09:56:35;7.30;99.90
28520;DHT22;15732;48.534;20.382;2022-11-15T09:59:31;7.40;99.90
28520;DHT22;15732;48.534;20.382;2022-11-15T10:02:43;7.40;99.90
28520;DHT22;15732;48.534;20.382;2022-11-15T10:05:20;7.40;99.90
28520;DHT22;15732;48.534;20.382;2022-11-15T10:11:06;7.40;99.90
28520;DHT22;15732;48.534;20.382;2022-11-15T10:13:36;7.40;99.90
28520;DHT22;15732;48.534;20.382;2022-11-15T10:19:17;7.60;99.90
28520;DHT22;15732;48.534;20.382;2022-11-15T10:22:00;7.80;99.90
28520;DHT22;15732;48.534;20.382;2022-11-15T10:25:38;7.80;99.90
28520;DHT22;15732;48.534;20.382;2022-11-15T10:27:43;7.90;99.90
28520;DHT22;15732;48.534;20.382;2022-11-15T10:30:15;7.90;99.90
28520;DHT22;15732;48.534;20.382;2022-11-15T10:32:45;8.00;99.90
28520;DHT22;15732;48.534;20.382;2022-11-15T10:35:29;8.00;99.90
28520;DHT22;15732;48.534;20.382;2022-11-15T10:38:11;8.00;99.90
28520;DHT22;15732;48.534;20.382;2022-11-15T10:40:42;8.10;99.90
28520;DHT22;15732;48.534;20.382;2022-11-15T10:43:15;8.10;99.90
28520;DHT22;15732;48.534;20.382;2022-11-15T10:45:49;8.10;99.90
28520;DHT22;15732;48.534;20.382;2022-11-15T10:48:23;8.10;99.90
28520;DHT22;15732;48.534;20.382;2022-11-15T10:50:51;8.20;99.90
28520;DHT22;15732;48.534;20.382;2022-11-15T10:53:29;8.20;99.90
28520;DHT22;15732;48.534;20.382;2022-11-15T10:56:01;8.20;99.90
28520;DHT22;15732;48.534;20.382;2022-11-15T10:58:35;8.20;99.90
28520;DHT22;15732;48.534;20.382;2022-11-15T11:01:17;8.30;99.90
28520;DHT22;15732;48.534;20.382;2022-11-15T11:03:57;8.30;99.90
28520;DHT22;15732;48.534;20.382;2022-11-15T11:06:28;8.30;99.90
28520;DHT22;15732;48.534;20.382;2022-11-15T11:09:00;8.30;99.90
28520;DHT22;15732;48.534;20.382;2022-11-15T11:11:46;8.30;99.90
28520;DHT22;15732;48.534;20.382;2022-11-15T11:28:42;8.40;99.90
28520;DHT22;15732;48.534;20.382;2022-11-15T11:37:20;8.40;99.90
28520;DHT22;15732;48.534;20.382;2022-11-15T11:40:17;8.40;99.90
28520;DHT22;15732;48.534;20.382;2022-11-15T11:43:26;8.50;99.90
28520;DHT22;15732;48.534;20.382;2022-11-15T11:48:48;8.50;99.90
28520;DHT22;15732;48.534;20.382;2022-11-15T11:52:18;8.50;99.90
28520;DHT22;15732;48.534;20.382;2022-11-15T11:57:10;8.60;99.90
28520;DHT22;15732;48.534;20.382;2022-11-15T12:00:12;8.60;99.90
28520;DHT22;15732;48.534;20.382;2022-11-15T12:05:59;8.60;99.90
28520;DHT22;15732;48.534;20.382;2022-11-15T12:08:51;8.60;99.90
28520;DHT22;15732;48.534;20.382;2022-11-15T12:13:49;8.60;99.90
28520;DHT22;15732;48.534;20.382;2022-11-15T12:16:27;8.60;99.90
28520;DHT22;15732;48.534;20.382;2022-11-15T12:18:56;8.60;99.90
28520;DHT22;15732;48.534;20.382;2022-11-15T12:24:21;8.60;99.90
28520;DHT22;15732;48.534;20.382;2022-11-15T12:29:58;8.60;99.90
28520;DHT22;15732;48.534;20.382;2022-11-15T12:32:33;8.60;99.90
28520;DHT22;15732;48.534;20.382;2022-11-15T12:35:03;8.70;99.90
28520;DHT22;15732;48.534;20.382;2022-11-15T12:42:41;8.70;99.90
28520;DHT22;15732;48.534;20.382;2022-11-15T12:47:52;8.80;99.90
28520;DHT22;15732;48.534;20.382;2022-11-15T12:58:58;8.90;99.90
28520;DHT22;15732;48.534;20.382;2022-11-15T13:06:48;9.00;99.90
28520;DHT22;15732;48.534;20.382;2022-11-15T13:15:30;9.10;99.90
28520;DHT22;15732;48.534;20.382;2022-11-15T13:17:55;9.10;99.90
28520;DHT22;15732;48.534;20.382;2022-11-15T13:20:27;9.10;99.90
28520;DHT22;15732;48.534;20.382;2022-11-15T13:31:24;9.00;99.90
28520;DHT22;15732;48.534;20.382;2022-11-15T13:33:53;9.00;99.90
28520;DHT22;15732;48.534;20.382;2022-11-15T13:36:28;9.00;99.90
28520;DHT22;15732;48.534;20.382;2022-11-15T13:39:02;9.00;99.90
28520;DHT22;15732;48.534;20.382;2022-11-15T13:41:36;9.00;99.90
28520;DHT22;15732;48.534;20.382;2022-11-15T13:44:39;8.90;99.90
28520;DHT22;15732;48.534;20.382;2022-11-15T13:47:20;8.90;99.90
28520;DHT22;15732;48.534;20.382;2022-11-15T13:49:47;8.90;99.90
28520;DHT22;15732;48.534;20.382;2022-11-15T13:52:18;8.90;99.90
28520;DHT22;15732;48.534;20.382;2022-11-15T13:54:50;8.90;99.90
28520;DHT22;15732;48.534;20.382;2022-11-15T13:57:27;8.90;99.90
28520;DHT22;15732;48.534;20.382;2022-11-15T13:59:59;8.80;99.90
28520;DHT22;15732;48.534;20.382;2022-11-15T14:02:34;8.80;99.90
28520;DHT22;15732;48.534;20.382;2022-11-15T14:07:30;8.80;99.90
28520;DHT22;15732;48.534;20.382;2022-11-15T14:12:56;8.80;99.90
28520;DHT22;15732;48.534;20.382;2022-11-15T14:15:37;8.80;99.90
28520;DHT22;15732;48.534;20.382;2022-11-15T14:18:05;8.70;99.90
28520;DHT22;15732;48.534;20.382;2022-11-15T14:20:37;8.70;99.90
28520;DHT22;15732;48.534;20.382;2022-11-15T14:23:19;8.70;99.90
28520;DHT22;15732;48.534;20.382;2022-11-15T14:25:56;8.70;99.90
28520;DHT22;15732;48.534;20.382;2022-11-15T14:28:33;8.70;99.90
28520;DHT22;15732;48.534;20.382;2022-11-15T14:31:10;8.70;99.90
28520;DHT22;15732;48.534;20.382;2022-11-15T14:33:40;8.70;99.90
28520;DHT22;15732;48.534;20.382;2022-11-15T14:36:18;8.70;99.90
28520;DHT22;15732;48.534;20.382;2022-11-15T14:39:01;8.70;99.90
28520;DHT22;15732;48.534;20.382;2022-11-15T14:41:37;8.70;99.90
28520;DHT22;15732;48.534;20.382;2022-11-15T14:44:09;8.70;99.90
28520;DHT22;15732;48.534;20.382;2022-11-15T14:46:37;8.60;99.90
28520;DHT22;15732;48.534;20.382;2022-11-15T14:49:08;8.60;99.90
28520;DHT22;15732;48.534;20.382;2022-11-15T14:51:35;8.60;99.90
28520;DHT22;15732;48.534;20.382;2022-11-15T14:54:07;8.60;99.90
28520;DHT22;15732;48.534;20.382;2022-11-15T14:56:35;8.60;99.90
28520;DHT22;15732;48.534;20.382;2022-11-15T14:59:02;8.60;99.90
28520;DHT22;15732;48.534;20.382;2022-11-15T15:01:29;8.60;99.90
28520;DHT22;15732;48.534;20.382;2022-11-15T15:03:57;8.60;99.90
28520;DHT22;15732;48.534;20.382;2022-11-15T15:06:25;8.60;99.90
28520;DHT22;15732;48.534;20.382;2022-11-15T15:08:56;8.60;99.90
28520;DHT22;15732;48.534;20.382;2022-11-15T15:11:28;8.60;99.90
28520;DHT22;15732;48.534;20.382;2022-11-15T15:14:00;8.60;99.90
28520;DHT22;15732;48.534;20.382;2022-11-15T15:16:27;8.60;99.90
28520;DHT22;15732;48.534;20.382;2022-11-15T15:18:55;8.60;99.90
28520;DHT22;15732;48.534;20.382;2022-11-15T15:21:28;8.60;99.90
28520;DHT22;15732;48.534;20.382;2022-11-15T15:23:54;8.60;99.90
28520;DHT22;15732;48.534;20.382;2022-11-15T15:26:22;8.50;99.90
28520;DHT22;15732;48.534;20.382;2022-11-15T15:28:57;8.50;99.90
28520;DHT22;15732;48.534;20.382;2022-11-15T15:31:24;8.50;99.90
28520;DHT22;15732;48.534;20.382;2022-11-15T15:33:51;8.50;99.90
28520;DHT22;15732;48.534;20.382;2022-11-15T15:36:18;8.50;99.90
28520;DHT22;15732;48.534;20.382;2022-11-15T15:38:46;8.50;99.90
28520;DHT22;15732;48.534;20.382;2022-11-15T15:41:15;8.50;99.90
28520;DHT22;15732;48.534;20.382;2022-11-15T15:43:42;8.40;99.90
28520;DHT22;15732;48.534;20.382;2022-11-15T15:46:15;8.40;99.90
28520;DHT22;15732;48.534;20.382;2022-11-15T15:48:44;8.40;99.90
28520;DHT22;15732;48.534;20.382;2022-11-15T15:51:14;8.40;99.90
28520;DHT22;15732;48.534;20.382;2022-11-15T15:53:45;8.40;99.90
28520;DHT22;15732;48.534;20.382;2022-11-15T15:56:12;8.40;99.90
28520;DHT22;15732;48.534;20.382;2022-11-15T15:58:39;8.40;99.90
28520;DHT22;15732;48.534;20.382;2022-11-15T16:01:07;8.40;99.90
28520;DHT22;15732;48.534;20.382;2022-11-15T16:03:38;8.40;99.90
28520;DHT22;15732;48.534;20.382;2022-11-15T16:06:33;8.30;99.90
28520;DHT22;15732;48.534;20.382;2022-11-15T16:09:01;8.40;99.90
28520;DHT22;15732;48.534;20.382;2022-11-15T16:11:28;8.40;99.90
28520;DHT22;15732;48.534;20.382;2022-11-15T16:13:59;8.40;99.90
28520;DHT22;15732;48.534;20.382;2022-11-15T16:16:30;8.40;99.90
28520;DHT22;15732;48.534;20.382;2022-11-15T16:19:02;8.40;99.90
28520;DHT22;15732;48.534;20.382;2022-11-15T16:21:29;8.40;99.90
28520;DHT22;15732;48.534;20.382;2022-11-15T16:24:00;8.40;99.90
28520;DHT22;15732;48.534;20.382;2022-11-15T16:26:29;8.40;99.90
28520;DHT22;15732;48.534;20.382;2022-11-15T16:28:56;8.40;99.90
28520;DHT22;15732;48.534;20.382;2022-11-15T16:31:28;8.40;99.90
28520;DHT22;15732;48.534;20.382;2022-11-15T16:33:55;8.30;99.90
28520;DHT22;15732;48.534;20.382;2022-11-15T16:36:24;8.30;99.90
28520;DHT22;15732;48.534;20.382;2022-11-15T16:38:52;8.30;99.90
28520;DHT22;15732;48.534;20.382;2022-11-15T16:41:23;8.30;99.90
28520;DHT22;15732;48.534;20.382;2022-11-15T16:43:50;8.30;99.90
28520;DHT22;15732;48.534;20.382;2022-11-15T16:46:23;8.30;99.90
28520;DHT22;15732;48.534;20.382;2022-11-15T16:48:50;8.30;99.90
28520;DHT22;15732;48.534;20.382;2022-11-15T16:51:18;8.30;99.90
28520;DHT22;15732;48.534;20.382;2022-11-15T16:53:46;8.30;99.90
28520;DHT22;15732;48.534;20.382;2022-11-15T16:58:40;8.40;99.90
28520;DHT22;15732;48.534;20.382;2022-11-15T17:01:16;8.40;99.90
28520;DHT22;15732;48.534;20.382;2022-11-15T17:03:43;8.40;99.90
28520;DHT22;15732;48.534;20.382;2022-11-15T17:06:12;8.30;99.90
28520;DHT22;15732;48.534;20.382;2022-11-15T17:08:40;8.40;99.90
28520;DHT22;15732;48.534;20.382;2022-11-15T17:11:07;8.40;99.90
28520;DHT22;15732;48.534;20.382;2022-11-15T17:13:34;8.40;99.90
28520;DHT22;15732;48.534;20.382;2022-11-15T17:16:06;8.40;99.90
28520;DHT22;15732;48.534;20.382;2022-11-15T17:18:34;8.40;99.90
28520;DHT22;15732;48.534;20.382;2022-11-15T17:21:05;8.30;99.90
28520;DHT22;15732;48.534;20.382;2022-11-15T17:23:32;8.40;99.90
28520;DHT22;15732;48.534;20.382;2022-11-15T17:26:02;8.30;99.90
28520;DHT22;15732;48.534;20.382;2022-11-15T17:28:32;8.40;99.90
28520;DHT22;15732;48.534;20.382;2022-11-15T17:30:59;8.40;99.90
28520;DHT22;15732;48.534;20.382;2022-11-15T17:33:27;8.40;99.90
28520;DHT22;15732;48.534;20.382;2022-11-15T17:36:01;8.30;99.90
28520;DHT22;15732;48.534;20.382;2022-11-15T17:38:28;8.40;99.90
28520;DHT22;15732;48.534;20.382;2022-11-15T17:41:03;8.40;99.90
28520;DHT22;15732;48.534;20.382;2022-11-15T17:43:32;8.40;99.90
28520;DHT22;15732;48.534;20.382;2022-11-15T17:46:03;8.40;99.90
28520;DHT22;15732;48.534;20.382;2022-11-15T17:48:30;8.40;99.90
28520;DHT22;15732;48.534;20.382;2022-11-15T17:51:03;8.40;99.90
28520;DHT22;15732;48.534;20.382;2022-11-15T17:53:35;8.30;99.90
28520;DHT22;15732;48.534;20.382;2022-11-15T17:56:26;8.30;99.90
28520;DHT22;15732;48.534;20.382;2022-11-15T17:58:57;8.40;99.90
28520;DHT22;15732;48.534;20.382;2022-11-15T18:01:25;8.30;99.90
28520;DHT22;15732;48.534;20.382;2022-11-15T18:03:52;8.40;99.90